sensor_id;sensor_type;location;lat;lon;timestamp;temperature;humidity
3528;DHT22;1778;47.966;7.854;2023-06-26T00:00:34;19.00;99.90
3528;DHT22;1778;47.966;7.854;2023-06-26T00:01:36;18.90;99.90
3528;DHT22;1778;47.966;7.854;2023-06-26T00:02:38;18.90;99.90
3528;DHT22;1778;47.966;7.854;2023-06-26T00:03:39;18.90;99.90
3528;DHT22;1778;47.966;7.854;2023-06-26T00:04:42;18.90;99.90
3528;DHT22;1778;47.966;7.854;2023-06-26T00:05:44;18.90;99.90
3528;DHT22;1778;47.966;7.854;2023-06-26T00:06:46;18.90;99.90
3528;DHT22;1778;47.966;7.854;2023-06-26T00:07:47;18.80;99.90
3528;DHT22;1778;47.966;7.854;2023-06-26T00:08:49;18.90;99.90
3528;DHT22;1778;47.966;7.854;2023-06-26T00:09:50;18.80;99.90
3528;DHT22;1778;47.966;7.854;2023-06-26T00:10:52;18.90;99.90
3528;DHT22;1778;47.966;7.854;2023-06-26T00:11:54;18.80;99.90
3528;DHT22;1778;47.966;7.854;2023-06-26T00:12:56;18.90;99.90
3528;DHT22;1778;47.966;7.854;2023-06-26T00:13:57;18.90;99.90
3528;DHT22;1778;47.966;7.854;2023-06-26T00:15:01;18.90;99.90
3528;DHT22;1778;47.966;7.854;2023-06-26T00:16:04;18.80;99.90
3528;DHT22;1778;47.966;7.854;2023-06-26T00:17:06;18.80;99.90
3528;DHT22;1778;47.966;7.854;2023-06-26T00:18:07;18.80;99.90
3528;DHT22;1778;47.966;7.854;2023-06-26T00:19:09;18.80;99.90
3528;DHT22;1778;47.966;7.854;2023-06-26T00:20:10;18.80;99.90
3528;DHT22;1778;47.966;7.854;2023-06-26T00:21:14;18.80;99.90
3528;DHT22;1778;47.966;7.854;2023-06-26T00:22:16;18.80;99.90
3528;DHT22;1778;47.966;7.854;2023-06-26T00:23:17;18.80;99.90
3528;DHT22;1778;47.966;7.854;2023-06-26T00:24:19;18.80;99.90
3528;DHT22;1778;47.966;7.854;2023-06-26T00:25:20;18.80;99.90
3528;DHT22;1778;47.966;7.854;2023-06-26T00:26:22;18.80;99.90
3528;DHT22;1778;47.966;7.854;2023-06-26T00:27:25;18.70;99.90
3528;DHT22;1778;47.966;7.854;2023-06-26T00:28:27;18.70;99.90
3528;DHT22;1778;47.966;7.854;2023-06-26T00:29:28;18.70;99.90
3528;DHT22;1778;47.966;7.854;2023-06-26T00:30:31;18.70;99.90
3528;DHT22;1778;47.966;7.854;2023-06-26T00:31:32;18.70;99.90
3528;DHT22;1778;47.966;7.854;2023-06-26T00:32:36;18.60;99.90
3528;DHT22;1778;47.966;7.854;2023-06-26T00:33:39;18.70;99.90
3528;DHT22;1778;47.966;7.854;2023-06-26T00:34:41;18.70;99.90
3528;DHT22;1778;47.966;7.854;2023-06-26T00:35:43;18.70;99.90
3528;DHT22;1778;47.966;7.854;2023-06-26T00:36:45;18.60;99.90
3528;DHT22;1778;47.966;7.854;2023-06-26T00:37:46;18.60;99.90
3528;DHT22;1778;47.966;7.854;2023-06-26T00:38:48;18.70;99.90
3528;DHT22;1778;47.966;7.854;2023-06-26T00:39:50;18.60;99.90
3528;DHT22;1778;47.966;7.854;2023-06-26T00:40:52;18.60;99.90
3528;DHT22;1778;47.966;7.854;2023-06-26T00:41:56;18.60;99.90
3528;DHT22;1778;47.966;7.854;2023-06-26T00:42:58;18.60;99.90
3528;DHT22;1778;47.966;7.854;2023-06-26T00:43:59;18.60;99.90
3528;DHT22;1778;47.966;7.854;2023-06-26T00:45:01;18.60;99.90
3528;DHT22;1778;47.966;7.854;2023-06-26T00:46:05;18.60;99.90
3528;DHT22;1778;47.966;7.854;2023-06-26T00:47:10;18.60;99.90
3528;DHT22;1778;47.966;7.854;2023-06-26T00:48:12;18.60;99.90
3528;DHT22;1778;47.966;7.854;2023-06-26T00:49:14;18.60;99.90
3528;DHT22;1778;47.966;7.854;2023-06-26T00:50:17;18.60;99.90
3528;DHT22;1778;47.966;7.854;2023-06-26T00:51:20;18.60;99.90
3528;DHT22;1778;47.966;7.854;2023-06-26T00:52:21;18.60;99.90
3528;DHT22;1778;47.966;7.854;2023-06-26T00:53:25;18.60;99.90
3528;DHT22;1778;47.966;7.854;2023-06-26T00:54:27;18.60;99.90
3528;DHT22;1778;47.966;7.854;2023-06-26T00:55:29;18.60;99.90
3528;DHT22;1778;47.966;7.854;2023-06-26T00:56:32;18.60;99.90
3528;DHT22;1778;47.966;7.854;2023-06-26T00:57:33;18.60;99.90
3528;DHT22;1778;47.966;7.854;2023-06-26T00:58:36;18.50;99.90
3528;DHT22;1778;47.966;7.854;2023-06-26T00:59:38;18.50;99.90
3528;DHT22;1778;47.966;7.854;2023-06-26T01:00:40;18.50;99.90
3528;DHT22;1778;47.966;7.854;2023-06-26T01:01:42;18.50;99.90
3528;DHT22;1778;47.966;7.854;2023-06-26T01:02:44;18.60;99.90
3528;DHT22;1778;47.966;7.854;2023-06-26T01:03:49;18.60;99.90
3528;DHT22;1778;47.966;7.854;2023-06-26T01:04:54;18.60;99.90
3528;DHT22;1778;47.966;7.854;2023-06-26T01:05:57;18.60;99.90
3528;DHT22;1778;47.966;7.854;2023-06-26T01:07:02;18.60;99.90
3528;DHT22;1778;47.966;7.854;2023-06-26T01:08:07;18.60;99.90
3528;DHT22;1778;47.966;7.854;2023-06-26T01:09:09;18.60;99.90
3528;DHT22;1778;47.966;7.854;2023-06-26T01:10:11;18.60;99.90
3528;DHT22;1778;47.966;7.854;2023-06-26T01:11:13;18.60;99.90
3528;DHT22;1778;47.966;7.854;2023-06-26T01:12:15;18.70;99.90
3528;DHT22;1778;47.966;7.854;2023-06-26T01:13:17;18.70;99.90
3528;DHT22;1778;47.966;7.854;2023-06-26T01:14:19;18.70;99.90
3528;DHT22;1778;47.966;7.854;2023-06-26T01:15:20;18.70;99.90
3528;DHT22;1778;47.966;7.854;2023-06-26T01:16:25;18.60;99.90
3528;DHT22;1778;47.966;7.854;2023-06-26T01:17:27;18.60;99.90
3528;DHT22;1778;47.966;7.854;2023-06-26T01:18:33;18.60;99.90
3528;DHT22;1778;47.966;7.854;2023-06-26T01:19:37;18.50;99.90
3528;DHT22;1778;47.966;7.854;2023-06-26T01:20:40;18.50;99.90
3528;DHT22;1778;47.966;7.854;2023-06-26T01:21:44;18.50;99.90
3528;DHT22;1778;47.966;7.854;2023-06-26T01:24:17;18.50;99.90
3528;DHT22;1778;47.966;7.854;2023-06-26T01:25:56;18.50;99.90
3528;DHT22;1778;47.966;7.854;2023-06-26T01:27:03;18.50;99.90
3528;DHT22;1778;47.966;7.854;2023-06-26T01:28:06;18.50;99.90
3528;DHT22;1778;47.966;7.854;2023-06-26T01:29:10;18.40;99.90
3528;DHT22;1778;47.966;7.854;2023-06-26T01:30:12;18.40;99.90
3528;DHT22;1778;47.966;7.854;2023-06-26T01:31:15;18.40;99.90
3528;DHT22;1778;47.966;7.854;2023-06-26T01:32:18;18.40;99.90
3528;DHT22;1778;47.966;7.854;2023-06-26T01:33:20;18.40;99.90
3528;DHT22;1778;47.966;7.854;2023-06-26T01:34:26;18.40;99.90
3528;DHT22;1778;47.966;7.854;2023-06-26T01:35:28;18.40;99.90
3528;DHT22;1778;47.966;7.854;2023-06-26T01:36:31;18.50;99.90
3528;DHT22;1778;47.966;7.854;2023-06-26T01:37:32;18.40;99.90
3528;DHT22;1778;47.966;7.854;2023-06-26T01:38:34;18.40;99.90
3528;DHT22;1778;47.966;7.854;2023-06-26T01:39:38;18.40;99.90
3528;DHT22;1778;47.966;7.854;2023-06-26T01:40:40;18.40;99.90
3528;DHT22;1778;47.966;7.854;2023-06-26T01:41:42;18.40;99.90
3528;DHT22;1778;47.966;7.854;2023-06-26T01:42:44;18.40;99.90
3528;DHT22;1778;47.966;7.854;2023-06-26T01:45:22;18.40;99.90
3528;DHT22;1778;47.966;7.854;2023-06-26T01:46:39;18.40;99.90
3528;DHT22;1778;47.966;7.854;2023-06-26T01:47:48;18.50;99.90
3528;DHT22;1778;47.966;7.854;2023-06-26T01:49:03;18.40;99.90
3528;DHT22;1778;47.966;7.854;2023-06-26T01:50:10;18.40;99.90
3528;DHT22;1778;47.966;7.854;2023-06-26T01:51:14;18.50;99.90
3528;DHT22;1778;47.966;7.854;2023-06-26T01:52:42;18.40;99.90
3528;DHT22;1778;47.966;7.854;2023-06-26T01:53:46;18.40;99.90
3528;DHT22;1778;47.966;7.854;2023-06-26T01:56:11;18.40;99.90
3528;DHT22;1778;47.966;7.854;2023-06-26T01:57:15;18.40;99.90
3528;DHT22;1778;47.966;7.854;2023-06-26T01:58:20;18.50;99.90
3528;DHT22;1778;47.966;7.854;2023-06-26T01:59:26;18.50;99.90
3528;DHT22;1778;47.966;7.854;2023-06-26T02:00:30;18.50;99.90
3528;DHT22;1778;47.966;7.854;2023-06-26T02:01:32;18.50;99.90
3528;DHT22;1778;47.966;7.854;2023-06-26T02:02:35;18.50;99.90
3528;DHT22;1778;47.966;7.854;2023-06-26T02:03:37;18.50;99.90
3528;DHT22;1778;47.966;7.854;2023-06-26T02:04:40;18.60;99.90
3528;DHT22;1778;47.966;7.854;2023-06-26T02:05:41;18.60;99.90
3528;DHT22;1778;47.966;7.854;2023-06-26T02:06:44;18.50;99.90
3528;DHT22;1778;47.966;7.854;2023-06-26T02:07:46;18.60;99.90
3528;DHT22;1778;47.966;7.854;2023-06-26T02:08:47;18.60;99.90
3528;DHT22;1778;47.966;7.854;2023-06-26T02:09:49;18.50;99.90
3528;DHT22;1778;47.966;7.854;2023-06-26T02:10:51;18.50;99.90
3528;DHT22;1778;47.966;7.854;2023-06-26T02:11:52;18.50;99.90
3528;DHT22;1778;47.966;7.854;2023-06-26T02:12:54;18.50;99.90
3528;DHT22;1778;47.966;7.854;2023-06-26T02:13:55;18.50;99.90
3528;DHT22;1778;47.966;7.854;2023-06-26T02:14:57;18.50;99.90
3528;DHT22;1778;47.966;7.854;2023-06-26T02:15:59;18.50;99.90
3528;DHT22;1778;47.966;7.854;2023-06-26T02:17:00;18.50;99.90
3528;DHT22;1778;47.966;7.854;2023-06-26T02:18:02;18.50;99.90
3528;DHT22;1778;47.966;7.854;2023-06-26T02:19:03;18.50;99.90
3528;DHT22;1778;47.966;7.854;2023-06-26T02:20:05;18.40;99.90
3528;DHT22;1778;47.966;7.854;2023-06-26T02:21:09;18.40;99.90
3528;DHT22;1778;47.966;7.854;2023-06-26T02:22:11;18.40;99.90
3528;DHT22;1778;47.966;7.854;2023-06-26T02:23:12;18.40;99.90
3528;DHT22;1778;47.966;7.854;2023-06-26T02:24:14;18.40;99.90
3528;DHT22;1778;47.966;7.854;2023-06-26T02:25:17;18.40;99.90
3528;DHT22;1778;47.966;7.854;2023-06-26T02:26:19;18.40;99.90
3528;DHT22;1778;47.966;7.854;2023-06-26T02:27:22;18.40;99.90
3528;DHT22;1778;47.966;7.854;2023-06-26T02:28:27;18.40;99.90
3528;DHT22;1778;47.966;7.854;2023-06-26T02:29:28;18.40;99.90
3528;DHT22;1778;47.966;7.854;2023-06-26T02:30:31;18.40;99.90
3528;DHT22;1778;47.966;7.854;2023-06-26T02:31:33;18.40;99.90
3528;DHT22;1778;47.966;7.854;2023-06-26T02:32:35;18.40;99.90
3528;DHT22;1778;47.966;7.854;2023-06-26T02:33:37;18.40;99.90
3528;DHT22;1778;47.966;7.854;2023-06-26T02:34:38;18.40;99.90
3528;DHT22;1778;47.966;7.854;2023-06-26T02:35:40;18.40;99.90
3528;DHT22;1778;47.966;7.854;2023-06-26T02:36:44;18.40;99.90
3528;DHT22;1778;47.966;7.854;2023-06-26T02:37:47;18.40;99.90
3528;DHT22;1778;47.966;7.854;2023-06-26T02:38:49;18.40;99.90
3528;DHT22;1778;47.966;7.854;2023-06-26T02:39:51;18.40;99.90
3528;DHT22;1778;47.966;7.854;2023-06-26T02:40:52;18.40;99.90
3528;DHT22;1778;47.966;7.854;2023-06-26T02:41:54;18.40;99.90
3528;DHT22;1778;47.966;7.854;2023-06-26T02:42:57;18.40;99.90
3528;DHT22;1778;47.966;7.854;2023-06-26T02:43:59;18.40;99.90
3528;DHT22;1778;47.966;7.854;2023-06-26T02:45:01;18.50;99.90
3528;DHT22;1778;47.966;7.854;2023-06-26T02:46:05;18.50;99.90
3528;DHT22;1778;47.966;7.854;2023-06-26T02:47:06;18.50;99.90
3528;DHT22;1778;47.966;7.854;2023-06-26T02:48:11;18.50;99.90
3528;DHT22;1778;47.966;7.854;2023-06-26T02:49:14;18.50;99.90
3528;DHT22;1778;47.966;7.854;2023-06-26T02:50:17;18.50;99.90
3528;DHT22;1778;47.966;7.854;2023-06-26T02:51:37;18.50;99.90
3528;DHT22;1778;47.966;7.854;2023-06-26T02:52:45;18.50;99.90
3528;DHT22;1778;47.966;7.854;2023-06-26T02:53:52;18.50;99.90
3528;DHT22;1778;47.966;7.854;2023-06-26T02:54:53;18.40;99.90
3528;DHT22;1778;47.966;7.854;2023-06-26T02:55:55;18.40;99.90
3528;DHT22;1778;47.966;7.854;2023-06-26T02:56:56;18.40;99.90
3528;DHT22;1778;47.966;7.854;2023-06-26T02:58:03;18.40;99.90
3528;DHT22;1778;47.966;7.854;2023-06-26T02:59:05;18.40;99.90
3528;DHT22;1778;47.966;7.854;2023-06-26T03:00:07;18.30;99.90
3528;DHT22;1778;47.966;7.854;2023-06-26T03:01:16;18.30;99.90
3528;DHT22;1778;47.966;7.854;2023-06-26T03:02:19;18.30;99.90
3528;DHT22;1778;47.966;7.854;2023-06-26T03:03:20;18.30;99.90
3528;DHT22;1778;47.966;7.854;2023-06-26T03:04:22;18.30;99.90
3528;DHT22;1778;47.966;7.854;2023-06-26T03:05:24;18.30;99.90
3528;DHT22;1778;47.966;7.854;2023-06-26T03:06:27;18.30;99.90
3528;DHT22;1778;47.966;7.854;2023-06-26T03:07:29;18.30;99.90
3528;DHT22;1778;47.966;7.854;2023-06-26T03:08:30;18.20;99.90
3528;DHT22;1778;47.966;7.854;2023-06-26T03:09:33;18.30;99.90
3528;DHT22;1778;47.966;7.854;2023-06-26T03:10:35;18.30;99.90
3528;DHT22;1778;47.966;7.854;2023-06-26T03:11:37;18.20;99.90
3528;DHT22;1778;47.966;7.854;2023-06-26T03:12:39;18.30;99.90
3528;DHT22;1778;47.966;7.854;2023-06-26T03:13:40;18.30;99.90
3528;DHT22;1778;47.966;7.854;2023-06-26T03:14:42;18.30;99.90
3528;DHT22;1778;47.966;7.854;2023-06-26T03:15:47;18.20;99.90
3528;DHT22;1778;47.966;7.854;2023-06-26T03:16:49;18.20;99.90
3528;DHT22;1778;47.966;7.854;2023-06-26T03:17:52;18.40;99.90
3528;DHT22;1778;47.966;7.854;2023-06-26T03:18:58;18.40;99.90
3528;DHT22;1778;47.966;7.854;2023-06-26T03:20:01;18.30;99.90
3528;DHT22;1778;47.966;7.854;2023-06-26T03:21:20;18.30;99.90
3528;DHT22;1778;47.966;7.854;2023-06-26T03:22:23;18.30;99.90
3528;DHT22;1778;47.966;7.854;2023-06-26T03:23:24;18.30;99.90
3528;DHT22;1778;47.966;7.854;2023-06-26T03:24:26;18.20;99.90
3528;DHT22;1778;47.966;7.854;2023-06-26T03:25:28;18.30;99.90
3528;DHT22;1778;47.966;7.854;2023-06-26T03:26:40;18.20;99.90
3528;DHT22;1778;47.966;7.854;2023-06-26T03:27:41;18.20;99.90
3528;DHT22;1778;47.966;7.854;2023-06-26T03:28:43;18.30;99.90
3528;DHT22;1778;47.966;7.854;2023-06-26T03:29:45;18.30;99.90
3528;DHT22;1778;47.966;7.854;2023-06-26T03:30:46;18.30;99.90
3528;DHT22;1778;47.966;7.854;2023-06-26T03:31:49;18.30;99.90
3528;DHT22;1778;47.966;7.854;2023-06-26T03:32:50;18.30;99.90
3528;DHT22;1778;47.966;7.854;2023-06-26T03:33:52;18.30;99.90
3528;DHT22;1778;47.966;7.854;2023-06-26T03:34:54;18.30;99.90
3528;DHT22;1778;47.966;7.854;2023-06-26T03:35:56;18.30;99.90
3528;DHT22;1778;47.966;7.854;2023-06-26T03:36:58;18.30;99.90
3528;DHT22;1778;47.966;7.854;2023-06-26T03:38:01;18.30;99.90
3528;DHT22;1778;47.966;7.854;2023-06-26T03:39:03;18.30;99.90
3528;DHT22;1778;47.966;7.854;2023-06-26T03:40:05;18.30;99.90
3528;DHT22;1778;47.966;7.854;2023-06-26T03:41:08;18.30;99.90
3528;DHT22;1778;47.966;7.854;2023-06-26T03:42:09;18.30;99.90
3528;DHT22;1778;47.966;7.854;2023-06-26T03:43:11;18.40;99.90
3528;DHT22;1778;47.966;7.854;2023-06-26T03:44:39;18.40;99.90
3528;DHT22;1778;47.966;7.854;2023-06-26T03:45:41;18.40;99.90
3528;DHT22;1778;47.966;7.854;2023-06-26T03:46:42;18.20;99.90
3528;DHT22;1778;47.966;7.854;2023-06-26T03:47:44;18.20;99.90
3528;DHT22;1778;47.966;7.854;2023-06-26T03:48:48;18.20;99.90
3528;DHT22;1778;47.966;7.854;2023-06-26T03:49:50;18.30;99.90
3528;DHT22;1778;47.966;7.854;2023-06-26T03:50:51;18.20;99.90
3528;DHT22;1778;47.966;7.854;2023-06-26T03:51:53;18.30;99.90
3528;DHT22;1778;47.966;7.854;2023-06-26T03:52:56;18.20;99.90
3528;DHT22;1778;47.966;7.854;2023-06-26T03:53:58;18.30;99.90
3528;DHT22;1778;47.966;7.854;2023-06-26T03:55:01;18.20;99.90
3528;DHT22;1778;47.966;7.854;2023-06-26T03:56:02;18.20;99.90
3528;DHT22;1778;47.966;7.854;2023-06-26T03:57:04;18.20;99.90
3528;DHT22;1778;47.966;7.854;2023-06-26T03:58:06;18.20;99.90
3528;DHT22;1778;47.966;7.854;2023-06-26T03:59:08;18.20;99.90
3528;DHT22;1778;47.966;7.854;2023-06-26T04:00:10;18.20;99.90
3528;DHT22;1778;47.966;7.854;2023-06-26T04:01:15;18.30;99.90
3528;DHT22;1778;47.966;7.854;2023-06-26T04:02:17;18.30;99.90
3528;DHT22;1778;47.966;7.854;2023-06-26T04:03:19;18.30;99.90
3528;DHT22;1778;47.966;7.854;2023-06-26T04:04:21;18.30;99.90
3528;DHT22;1778;47.966;7.854;2023-06-26T04:05:23;18.40;99.90
3528;DHT22;1778;47.966;7.854;2023-06-26T04:06:25;18.30;99.90
3528;DHT22;1778;47.966;7.854;2023-06-26T04:07:28;18.30;99.90
3528;DHT22;1778;47.966;7.854;2023-06-26T04:08:32;18.40;99.90
3528;DHT22;1778;47.966;7.854;2023-06-26T04:09:34;18.40;99.90
3528;DHT22;1778;47.966;7.854;2023-06-26T04:10:36;18.40;99.90
3528;DHT22;1778;47.966;7.854;2023-06-26T04:11:39;18.50;99.90
3528;DHT22;1778;47.966;7.854;2023-06-26T04:12:41;18.40;99.90
3528;DHT22;1778;47.966;7.854;2023-06-26T04:13:42;18.40;99.90
3528;DHT22;1778;47.966;7.854;2023-06-26T04:14:44;18.40;99.90
3528;DHT22;1778;47.966;7.854;2023-06-26T04:15:46;18.40;99.90
3528;DHT22;1778;47.966;7.854;2023-06-26T04:16:47;18.50;99.90
3528;DHT22;1778;47.966;7.854;2023-06-26T04:17:49;18.40;99.90
3528;DHT22;1778;47.966;7.854;2023-06-26T04:18:52;18.40;99.90
3528;DHT22;1778;47.966;7.854;2023-06-26T04:19:54;18.40;99.90
3528;DHT22;1778;47.966;7.854;2023-06-26T04:21:24;18.50;99.90
3528;DHT22;1778;47.966;7.854;2023-06-26T04:22:26;18.50;99.90
3528;DHT22;1778;47.966;7.854;2023-06-26T04:23:28;18.50;99.90
3528;DHT22;1778;47.966;7.854;2023-06-26T04:24:29;18.60;99.90
3528;DHT22;1778;47.966;7.854;2023-06-26T04:25:31;18.50;99.90
3528;DHT22;1778;47.966;7.854;2023-06-26T04:26:33;18.60;99.90
3528;DHT22;1778;47.966;7.854;2023-06-26T04:27:34;18.60;99.90
3528;DHT22;1778;47.966;7.854;2023-06-26T04:28:39;18.60;99.90
3528;DHT22;1778;47.966;7.854;2023-06-26T04:29:40;18.60;99.90
3528;DHT22;1778;47.966;7.854;2023-06-26T04:30:42;18.70;99.90
3528;DHT22;1778;47.966;7.854;2023-06-26T04:31:43;18.70;99.90
3528;DHT22;1778;47.966;7.854;2023-06-26T04:32:48;18.70;99.90
3528;DHT22;1778;47.966;7.854;2023-06-26T04:33:49;18.70;99.90
3528;DHT22;1778;47.966;7.854;2023-06-26T04:34:52;18.70;99.90
3528;DHT22;1778;47.966;7.854;2023-06-26T04:35:54;18.70;99.90
3528;DHT22;1778;47.966;7.854;2023-06-26T04:36:55;18.70;99.90
3528;DHT22;1778;47.966;7.854;2023-06-26T04:37:57;18.70;99.90
3528;DHT22;1778;47.966;7.854;2023-06-26T04:38:59;18.80;99.90
3528;DHT22;1778;47.966;7.854;2023-06-26T04:40:00;18.80;99.90
3528;DHT22;1778;47.966;7.854;2023-06-26T04:41:02;18.80;99.90
3528;DHT22;1778;47.966;7.854;2023-06-26T04:42:05;18.80;99.90
3528;DHT22;1778;47.966;7.854;2023-06-26T04:43:07;18.80;99.90
3528;DHT22;1778;47.966;7.854;2023-06-26T04:44:09;18.80;99.90
3528;DHT22;1778;47.966;7.854;2023-06-26T04:45:11;18.80;99.90
3528;DHT22;1778;47.966;7.854;2023-06-26T04:46:12;18.80;99.90
3528;DHT22;1778;47.966;7.854;2023-06-26T04:47:14;18.80;99.90
3528;DHT22;1778;47.966;7.854;2023-06-26T04:48:17;18.80;99.90
3528;DHT22;1778;47.966;7.854;2023-06-26T04:49:19;18.80;99.90
3528;DHT22;1778;47.966;7.854;2023-06-26T04:50:21;18.80;99.90
3528;DHT22;1778;47.966;7.854;2023-06-26T04:51:24;18.80;99.90
3528;DHT22;1778;47.966;7.854;2023-06-26T04:52:26;18.80;99.90
3528;DHT22;1778;47.966;7.854;2023-06-26T04:53:28;18.80;99.90
3528;DHT22;1778;47.966;7.854;2023-06-26T04:54:29;18.80;99.90
3528;DHT22;1778;47.966;7.854;2023-06-26T04:55:31;18.80;99.90
3528;DHT22;1778;47.966;7.854;2023-06-26T04:56:32;18.80;99.90
3528;DHT22;1778;47.966;7.854;2023-06-26T04:57:33;18.90;99.90
3528;DHT22;1778;47.966;7.854;2023-06-26T04:58:35;18.90;99.90
3528;DHT22;1778;47.966;7.854;2023-06-26T04:59:37;19.00;99.90
3528;DHT22;1778;47.966;7.854;2023-06-26T05:00:38;19.00;99.90
3528;DHT22;1778;47.966;7.854;2023-06-26T05:01:44;19.00;99.90
3528;DHT22;1778;47.966;7.854;2023-06-26T05:02:49;19.00;99.90
3528;DHT22;1778;47.966;7.854;2023-06-26T05:03:51;19.10;99.90
3528;DHT22;1778;47.966;7.854;2023-06-26T05:04:52;19.10;99.90
3528;DHT22;1778;47.966;7.854;2023-06-26T05:05:54;19.10;99.90
3528;DHT22;1778;47.966;7.854;2023-06-26T05:06:56;19.20;99.90
3528;DHT22;1778;47.966;7.854;2023-06-26T05:07:57;19.20;99.90
3528;DHT22;1778;47.966;7.854;2023-06-26T05:08:59;19.30;99.90
3528;DHT22;1778;47.966;7.854;2023-06-26T05:10:00;19.30;99.90
3528;DHT22;1778;47.966;7.854;2023-06-26T05:11:02;19.40;99.90
3528;DHT22;1778;47.966;7.854;2023-06-26T05:12:04;19.40;99.90
3528;DHT22;1778;47.966;7.854;2023-06-26T05:13:05;19.40;99.90
3528;DHT22;1778;47.966;7.854;2023-06-26T05:14:07;19.50;99.90
3528;DHT22;1778;47.966;7.854;2023-06-26T05:15:09;19.50;99.90
3528;DHT22;1778;47.966;7.854;2023-06-26T05:16:11;19.60;99.90
3528;DHT22;1778;47.966;7.854;2023-06-26T05:17:14;19.60;99.90
3528;DHT22;1778;47.966;7.854;2023-06-26T05:18:16;19.60;99.90
3528;DHT22;1778;47.966;7.854;2023-06-26T05:19:18;19.70;99.90
3528;DHT22;1778;47.966;7.854;2023-06-26T05:20:19;19.80;99.90
3528;DHT22;1778;47.966;7.854;2023-06-26T05:21:21;19.80;99.90
3528;DHT22;1778;47.966;7.854;2023-06-26T05:22:23;19.80;99.90
3528;DHT22;1778;47.966;7.854;2023-06-26T05:23:25;19.80;99.90
3528;DHT22;1778;47.966;7.854;2023-06-26T05:24:28;19.90;99.90
3528;DHT22;1778;47.966;7.854;2023-06-26T05:25:31;19.90;99.90
3528;DHT22;1778;47.966;7.854;2023-06-26T05:26:33;20.00;99.90
3528;DHT22;1778;47.966;7.854;2023-06-26T05:27:35;20.10;99.90
3528;DHT22;1778;47.966;7.854;2023-06-26T05:28:37;20.10;99.90
3528;DHT22;1778;47.966;7.854;2023-06-26T05:29:39;20.10;99.90
3528;DHT22;1778;47.966;7.854;2023-06-26T05:30:41;20.20;99.90
3528;DHT22;1778;47.966;7.854;2023-06-26T05:31:44;20.20;99.90
3528;DHT22;1778;47.966;7.854;2023-06-26T05:32:47;20.30;99.90
3528;DHT22;1778;47.966;7.854;2023-06-26T05:33:53;20.30;99.90
3528;DHT22;1778;47.966;7.854;2023-06-26T05:34:57;20.40;99.90
3528;DHT22;1778;47.966;7.854;2023-06-26T05:36:02;20.40;99.90
3528;DHT22;1778;47.966;7.854;2023-06-26T05:37:05;20.50;99.90
3528;DHT22;1778;47.966;7.854;2023-06-26T05:38:08;20.50;99.90
3528;DHT22;1778;47.966;7.854;2023-06-26T05:39:10;20.50;99.90
3528;DHT22;1778;47.966;7.854;2023-06-26T05:40:12;20.60;99.90
3528;DHT22;1778;47.966;7.854;2023-06-26T05:41:14;20.60;99.90
3528;DHT22;1778;47.966;7.854;2023-06-26T05:42:16;20.70;99.90
3528;DHT22;1778;47.966;7.854;2023-06-26T05:43:18;20.70;99.90
3528;DHT22;1778;47.966;7.854;2023-06-26T05:44:28;20.70;99.90
3528;DHT22;1778;47.966;7.854;2023-06-26T05:45:29;20.80;99.90
3528;DHT22;1778;47.966;7.854;2023-06-26T05:46:31;20.90;99.90
3528;DHT22;1778;47.966;7.854;2023-06-26T05:47:32;20.90;99.90
3528;DHT22;1778;47.966;7.854;2023-06-26T05:48:34;21.00;99.90
3528;DHT22;1778;47.966;7.854;2023-06-26T05:49:36;21.00;99.90
3528;DHT22;1778;47.966;7.854;2023-06-26T05:50:38;21.10;99.90
3528;DHT22;1778;47.966;7.854;2023-06-26T05:51:42;21.10;99.90
3528;DHT22;1778;47.966;7.854;2023-06-26T05:52:44;21.20;99.90
3528;DHT22;1778;47.966;7.854;2023-06-26T05:53:47;21.20;99.90
3528;DHT22;1778;47.966;7.854;2023-06-26T05:54:48;21.30;99.90
3528;DHT22;1778;47.966;7.854;2023-06-26T05:55:50;21.30;99.90
3528;DHT22;1778;47.966;7.854;2023-06-26T05:56:57;21.40;99.90
3528;DHT22;1778;47.966;7.854;2023-06-26T05:58:03;21.40;99.90
3528;DHT22;1778;47.966;7.854;2023-06-26T05:59:06;21.50;99.90
3528;DHT22;1778;47.966;7.854;2023-06-26T06:00:09;21.50;99.90
3528;DHT22;1778;47.966;7.854;2023-06-26T06:01:16;21.60;99.90
3528;DHT22;1778;47.966;7.854;2023-06-26T06:02:18;21.60;99.90
3528;DHT22;1778;47.966;7.854;2023-06-26T06:03:19;21.60;99.90
3528;DHT22;1778;47.966;7.854;2023-06-26T06:04:21;21.70;99.90
3528;DHT22;1778;47.966;7.854;2023-06-26T06:05:22;21.80;99.90
3528;DHT22;1778;47.966;7.854;2023-06-26T06:06:24;21.80;99.90
3528;DHT22;1778;47.966;7.854;2023-06-26T06:07:25;21.90;99.90
3528;DHT22;1778;47.966;7.854;2023-06-26T06:08:27;22.00;99.90
3528;DHT22;1778;47.966;7.854;2023-06-26T06:09:29;22.00;99.90
3528;DHT22;1778;47.966;7.854;2023-06-26T06:10:30;22.10;99.90
3528;DHT22;1778;47.966;7.854;2023-06-26T06:11:32;22.10;99.90
3528;DHT22;1778;47.966;7.854;2023-06-26T06:12:34;22.20;99.90
3528;DHT22;1778;47.966;7.854;2023-06-26T06:13:35;22.30;99.90
3528;DHT22;1778;47.966;7.854;2023-06-26T06:14:37;22.30;99.90
3528;DHT22;1778;47.966;7.854;2023-06-26T06:15:38;22.30;99.90
3528;DHT22;1778;47.966;7.854;2023-06-26T06:16:40;22.40;99.90
3528;DHT22;1778;47.966;7.854;2023-06-26T06:17:41;22.40;99.90
3528;DHT22;1778;47.966;7.854;2023-06-26T06:18:43;22.50;99.90
3528;DHT22;1778;47.966;7.854;2023-06-26T06:19:45;22.50;99.90
3528;DHT22;1778;47.966;7.854;2023-06-26T06:20:47;22.60;99.90
3528;DHT22;1778;47.966;7.854;2023-06-26T06:21:48;22.70;99.90
3528;DHT22;1778;47.966;7.854;2023-06-26T06:22:51;22.80;99.90
3528;DHT22;1778;47.966;7.854;2023-06-26T06:23:53;22.90;99.90
3528;DHT22;1778;47.966;7.854;2023-06-26T06:24:54;22.90;99.90
3528;DHT22;1778;47.966;7.854;2023-06-26T06:25:56;22.90;99.90
3528;DHT22;1778;47.966;7.854;2023-06-26T06:26:57;23.00;99.90
3528;DHT22;1778;47.966;7.854;2023-06-26T06:27:59;23.00;99.90
3528;DHT22;1778;47.966;7.854;2023-06-26T06:29:00;23.20;99.90
3528;DHT22;1778;47.966;7.854;2023-06-26T06:30:02;23.20;99.90
3528;DHT22;1778;47.966;7.854;2023-06-26T06:31:05;23.20;99.90
3528;DHT22;1778;47.966;7.854;2023-06-26T06:32:07;23.20;99.90
3528;DHT22;1778;47.966;7.854;2023-06-26T06:33:10;23.30;99.90
3528;DHT22;1778;47.966;7.854;2023-06-26T06:34:11;23.40;99.90
3528;DHT22;1778;47.966;7.854;2023-06-26T06:35:14;23.50;99.90
3528;DHT22;1778;47.966;7.854;2023-06-26T06:36:16;23.70;99.90
3528;DHT22;1778;47.966;7.854;2023-06-26T06:37:18;23.80;99.90
3528;DHT22;1778;47.966;7.854;2023-06-26T06:38:19;23.80;99.90
3528;DHT22;1778;47.966;7.854;2023-06-26T06:39:21;23.90;99.90
3528;DHT22;1778;47.966;7.854;2023-06-26T06:40:23;24.00;99.90
3528;DHT22;1778;47.966;7.854;2023-06-26T06:41:26;24.10;99.90
3528;DHT22;1778;47.966;7.854;2023-06-26T06:42:27;24.20;99.90
3528;DHT22;1778;47.966;7.854;2023-06-26T06:43:29;24.30;99.90
3528;DHT22;1778;47.966;7.854;2023-06-26T06:44:30;24.30;99.90
3528;DHT22;1778;47.966;7.854;2023-06-26T06:45:32;24.40;99.90
3528;DHT22;1778;47.966;7.854;2023-06-26T06:46:34;24.50;99.90
3528;DHT22;1778;47.966;7.854;2023-06-26T06:47:35;24.50;99.90
3528;DHT22;1778;47.966;7.854;2023-06-26T06:48:37;24.60;99.90
3528;DHT22;1778;47.966;7.854;2023-06-26T06:49:39;24.70;99.90
3528;DHT22;1778;47.966;7.854;2023-06-26T06:50:41;24.80;99.90
3528;DHT22;1778;47.966;7.854;2023-06-26T06:51:43;25.00;99.90
3528;DHT22;1778;47.966;7.854;2023-06-26T06:52:45;25.10;99.90
3528;DHT22;1778;47.966;7.854;2023-06-26T06:53:46;25.20;99.90
3528;DHT22;1778;47.966;7.854;2023-06-26T06:54:55;25.30;99.90